Terminal Aerodrome Forecast
Issued by NWS

Home | Current Version | Previous Version | Text Only | Print | Product List | Glossary On
Versions: 1 2 3 4 5 6 7 8 9 10 11 12 13 14 15 16
000
FTUS45 KGGW 280500
TAFSDY
TAF
KSDY 280520Z 2806/2906 01013G20KT P6SM VCSH OVC080
     FM280900 02015KT P6SM -SHRA OVC030
     FM281300 04010G15KT P6SM -RA OVC025
      AMD LTD TO CLD VIS AND WIND=

USA.gov is the U.S. government's official web portal to all federal, state and local government web resources and services.